sensor_id;sensor_type;location;lat;lon;timestamp;P1;durP1;ratioP1;P2;durP2;ratioP2
64716;SDS011;51146;50.274;19.000;2022-07-23T00:01:23;11.88;;;10.45;;
64716;SDS011;51146;50.274;19.000;2022-07-23T00:03:53;13.50;;;11.40;;
64716;SDS011;51146;50.274;19.000;2022-07-23T00:06:21;12.82;;;10.45;;
64716;SDS011;51146;50.274;19.000;2022-07-23T00:08:49;13.65;;;10.55;;
64716;SDS011;51146;50.274;19.000;2022-07-23T00:11:16;13.73;;;10.80;;
64716;SDS011;51146;50.274;19.000;2022-07-23T00:13:43;12.55;;;10.45;;
64716;SDS011;51146;50.274;19.000;2022-07-23T00:16:11;13.30;;;10.73;;
64716;SDS011;51146;50.274;19.000;2022-07-23T00:18:37;13.70;;;11.15;;
64716;SDS011;51146;50.274;19.000;2022-07-23T00:21:04;14.65;;;9.95;;
64716;SDS011;51146;50.274;19.000;2022-07-23T00:23:31;13.43;;;10.00;;
64716;SDS011;51146;50.274;19.000;2022-07-23T00:25:58;11.18;;;9.98;;
64716;SDS011;51146;50.274;19.000;2022-07-23T00:28:25;11.77;;;10.60;;
64716;SDS011;51146;50.274;19.000;2022-07-23T00:30:52;12.65;;;9.77;;
64716;SDS011;51146;50.274;19.000;2022-07-23T00:33:19;16.45;;;10.52;;
64716;SDS011;51146;50.274;19.000;2022-07-23T00:35:45;11.45;;;10.25;;
64716;SDS011;51146;50.274;19.000;2022-07-23T00:38:12;12.80;;;10.07;;
64716;SDS011;51146;50.274;19.000;2022-07-23T00:40:39;11.98;;;10.32;;
64716;SDS011;51146;50.274;19.000;2022-07-23T00:43:06;11.93;;;10.10;;
64716;SDS011;51146;50.274;19.000;2022-07-23T00:45:33;10.68;;;9.63;;
64716;SDS011;51146;50.274;19.000;2022-07-23T00:48:00;11.23;;;10.13;;
64716;SDS011;51146;50.274;19.000;2022-07-23T00:50:28;13.85;;;10.95;;
64716;SDS011;51146;50.274;19.000;2022-07-23T00:52:55;10.85;;;9.82;;
64716;SDS011;51146;50.274;19.000;2022-07-23T00:55:22;12.40;;;9.88;;
64716;SDS011;51146;50.274;19.000;2022-07-23T00:57:49;10.93;;;9.82;;
64716;SDS011;51146;50.274;19.000;2022-07-23T01:00:17;11.15;;;9.73;;
64716;SDS011;51146;50.274;19.000;2022-07-23T01:02:43;14.68;;;9.70;;
64716;SDS011;51146;50.274;19.000;2022-07-23T01:05:13;14.95;;;11.02;;
64716;SDS011;51146;50.274;19.000;2022-07-23T01:07:40;12.68;;;10.73;;
64716;SDS011;51146;50.274;19.000;2022-07-23T01:10:07;12.70;;;10.20;;
64716;SDS011;51146;50.274;19.000;2022-07-23T01:12:55;12.50;;;10.85;;
64716;SDS011;51146;50.274;19.000;2022-07-23T01:15:22;14.40;;;10.63;;
64716;SDS011;51146;50.274;19.000;2022-07-23T01:17:49;11.00;;;9.75;;
64716;SDS011;51146;50.274;19.000;2022-07-23T01:20:17;11.55;;;10.40;;
64716;SDS011;51146;50.274;19.000;2022-07-23T01:22:44;11.55;;;10.45;;
64716;SDS011;51146;50.274;19.000;2022-07-23T01:25:11;11.95;;;9.63;;
64716;SDS011;51146;50.274;19.000;2022-07-23T01:27:38;14.98;;;10.60;;
64716;SDS011;51146;50.274;19.000;2022-07-23T01:30:05;12.20;;;10.85;;
64716;SDS011;51146;50.274;19.000;2022-07-23T01:32:32;11.23;;;10.00;;
64716;SDS011;51146;50.274;19.000;2022-07-23T01:34:59;10.82;;;9.77;;
64716;SDS011;51146;50.274;19.000;2022-07-23T01:37:26;12.50;;;10.57;;
64716;SDS011;51146;50.274;19.000;2022-07-23T01:39:52;11.23;;;10.10;;
64716;SDS011;51146;50.274;19.000;2022-07-23T01:42:19;12.30;;;11.00;;
64716;SDS011;51146;50.274;19.000;2022-07-23T01:44:47;14.50;;;10.55;;
64716;SDS011;51146;50.274;19.000;2022-07-23T01:47:14;12.13;;;10.57;;
64716;SDS011;51146;50.274;19.000;2022-07-23T01:49:41;11.00;;;9.88;;
64716;SDS011;51146;50.274;19.000;2022-07-23T01:52:07;16.65;;;10.30;;
64716;SDS011;51146;50.274;19.000;2022-07-23T01:54:37;15.48;;;11.82;;
64716;SDS011;51146;50.274;19.000;2022-07-23T01:57:06;18.45;;;12.38;;
64716;SDS011;51146;50.274;19.000;2022-07-23T01:59:33;16.13;;;11.98;;
64716;SDS011;51146;50.274;19.000;2022-07-23T02:02:00;15.20;;;12.07;;
64716;SDS011;51146;50.274;19.000;2022-07-23T02:04:27;15.40;;;12.50;;
64716;SDS011;51146;50.274;19.000;2022-07-23T02:06:54;14.60;;;11.68;;
64716;SDS011;51146;50.274;19.000;2022-07-23T02:09:22;13.98;;;11.88;;
64716;SDS011;51146;50.274;19.000;2022-07-23T02:11:49;13.68;;;11.38;;
64716;SDS011;51146;50.274;19.000;2022-07-23T02:14:16;16.77;;;12.20;;
64716;SDS011;51146;50.274;19.000;2022-07-23T02:16:43;14.35;;;11.52;;
64716;SDS011;51146;50.274;19.000;2022-07-23T02:19:10;15.60;;;11.73;;
64716;SDS011;51146;50.274;19.000;2022-07-23T02:21:37;13.90;;;11.50;;
64716;SDS011;51146;50.274;19.000;2022-07-23T02:24:04;15.25;;;11.75;;
64716;SDS011;51146;50.274;19.000;2022-07-23T02:26:31;13.40;;;11.63;;
64716;SDS011;51146;50.274;19.000;2022-07-23T02:29:01;15.43;;;11.65;;
64716;SDS011;51146;50.274;19.000;2022-07-23T02:31:30;13.50;;;11.32;;
64716;SDS011;51146;50.274;19.000;2022-07-23T02:33:57;15.75;;;11.93;;
64716;SDS011;51146;50.274;19.000;2022-07-23T02:36:24;16.92;;;11.63;;
64716;SDS011;51146;50.274;19.000;2022-07-23T02:38:51;14.07;;;11.18;;
64716;SDS011;51146;50.274;19.000;2022-07-23T02:41:18;15.30;;;11.85;;
64716;SDS011;51146;50.274;19.000;2022-07-23T02:43:44;15.60;;;11.90;;
64716;SDS011;51146;50.274;19.000;2022-07-23T02:46:11;16.17;;;11.68;;
64716;SDS011;51146;50.274;19.000;2022-07-23T02:48:38;17.20;;;11.63;;
64716;SDS011;51146;50.274;19.000;2022-07-23T02:51:05;16.40;;;12.77;;
64716;SDS011;51146;50.274;19.000;2022-07-23T02:53:40;16.02;;;13.40;;
64716;SDS011;51146;50.274;19.000;2022-07-23T02:56:07;16.65;;;13.10;;
64716;SDS011;51146;50.274;19.000;2022-07-23T02:58:34;15.52;;;13.40;;
64716;SDS011;51146;50.274;19.000;2022-07-23T03:01:01;16.25;;;13.93;;
64716;SDS011;51146;50.274;19.000;2022-07-23T03:03:27;17.15;;;13.57;;
64716;SDS011;51146;50.274;19.000;2022-07-23T03:05:55;18.38;;;13.18;;
64716;SDS011;51146;50.274;19.000;2022-07-23T03:08:22;17.75;;;13.75;;
64716;SDS011;51146;50.274;19.000;2022-07-23T03:10:49;15.27;;;13.77;;
64716;SDS011;51146;50.274;19.000;2022-07-23T03:13:16;19.17;;;14.13;;
64716;SDS011;51146;50.274;19.000;2022-07-23T03:15:43;19.33;;;14.85;;
64716;SDS011;51146;50.274;19.000;2022-07-23T03:18:10;18.70;;;14.88;;
64716;SDS011;51146;50.274;19.000;2022-07-23T03:20:37;20.67;;;14.32;;
64716;SDS011;51146;50.274;19.000;2022-07-23T03:23:04;19.05;;;15.70;;
64716;SDS011;51146;50.274;19.000;2022-07-23T03:25:31;16.52;;;14.82;;
64716;SDS011;51146;50.274;19.000;2022-07-23T03:27:58;18.63;;;15.43;;
64716;SDS011;51146;50.274;19.000;2022-07-23T03:30:24;17.92;;;15.30;;
64716;SDS011;51146;50.274;19.000;2022-07-23T03:32:51;27.35;;;15.05;;
64716;SDS011;51146;50.274;19.000;2022-07-23T03:35:18;18.80;;;15.50;;
64716;SDS011;51146;50.274;19.000;2022-07-23T03:37:45;20.00;;;15.30;;
64716;SDS011;51146;50.274;19.000;2022-07-23T03:40:12;24.42;;;15.30;;
64716;SDS011;51146;50.274;19.000;2022-07-23T03:42:39;19.33;;;14.10;;
64716;SDS011;51146;50.274;19.000;2022-07-23T03:45:07;19.10;;;15.30;;
64716;SDS011;51146;50.274;19.000;2022-07-23T03:47:34;16.90;;;13.82;;
64716;SDS011;51146;50.274;19.000;2022-07-23T03:50:02;18.20;;;15.55;;
64716;SDS011;51146;50.274;19.000;2022-07-23T03:52:29;20.00;;;14.93;;
64716;SDS011;51146;50.274;19.000;2022-07-23T03:54:56;18.98;;;15.50;;
64716;SDS011;51146;50.274;19.000;2022-07-23T03:57:23;20.63;;;14.90;;
64716;SDS011;51146;50.274;19.000;2022-07-23T03:59:49;22.13;;;14.77;;
64716;SDS011;51146;50.274;19.000;2022-07-23T04:02:16;18.85;;;15.82;;
64716;SDS011;51146;50.274;19.000;2022-07-23T04:04:43;22.80;;;14.75;;
64716;SDS011;51146;50.274;19.000;2022-07-23T04:07:09;19.10;;;15.25;;
64716;SDS011;51146;50.274;19.000;2022-07-23T04:09:36;17.05;;;14.60;;
64716;SDS011;51146;50.274;19.000;2022-07-23T04:12:03;17.83;;;15.70;;
64716;SDS011;51146;50.274;19.000;2022-07-23T04:14:30;17.75;;;14.90;;
64716;SDS011;51146;50.274;19.000;2022-07-23T04:16:57;22.10;;;15.48;;
64716;SDS011;51146;50.274;19.000;2022-07-23T04:19:25;20.02;;;16.30;;
64716;SDS011;51146;50.274;19.000;2022-07-23T04:21:52;18.77;;;15.73;;
64716;SDS011;51146;50.274;19.000;2022-07-23T04:24:19;18.08;;;14.60;;
64716;SDS011;51146;50.274;19.000;2022-07-23T04:26:46;20.77;;;16.50;;
64716;SDS011;51146;50.274;19.000;2022-07-23T04:29:12;21.50;;;15.50;;
64716;SDS011;51146;50.274;19.000;2022-07-23T04:31:39;25.10;;;17.15;;
64716;SDS011;51146;50.274;19.000;2022-07-23T04:34:06;25.10;;;18.63;;
64716;SDS011;51146;50.274;19.000;2022-07-23T04:36:32;28.13;;;19.88;;
64716;SDS011;51146;50.274;19.000;2022-07-23T04:38:59;26.17;;;22.33;;
64716;SDS011;51146;50.274;19.000;2022-07-23T04:41:27;34.30;;;23.63;;
64716;SDS011;51146;50.274;19.000;2022-07-23T04:43:54;32.45;;;23.40;;
64716;SDS011;51146;50.274;19.000;2022-07-23T04:46:21;32.55;;;25.23;;
64716;SDS011;51146;50.274;19.000;2022-07-23T04:48:48;29.35;;;23.13;;
64716;SDS011;51146;50.274;19.000;2022-07-23T04:51:15;34.75;;;25.00;;
64716;SDS011;51146;50.274;19.000;2022-07-23T04:53:42;32.03;;;26.17;;
64716;SDS011;51146;50.274;19.000;2022-07-23T04:56:10;34.67;;;26.60;;
64716;SDS011;51146;50.274;19.000;2022-07-23T04:58:37;36.03;;;28.02;;
64716;SDS011;51146;50.274;19.000;2022-07-23T05:01:04;33.63;;;24.83;;
64716;SDS011;51146;50.274;19.000;2022-07-23T05:03:32;34.38;;;26.15;;
64716;SDS011;51146;50.274;19.000;2022-07-23T05:05:59;31.65;;;25.50;;
64716;SDS011;51146;50.274;19.000;2022-07-23T05:08:26;31.45;;;25.33;;
64716;SDS011;51146;50.274;19.000;2022-07-23T05:10:52;27.92;;;22.35;;
64716;SDS011;51146;50.274;19.000;2022-07-23T05:13:19;39.35;;;24.08;;
64716;SDS011;51146;50.274;19.000;2022-07-23T05:15:46;29.50;;;23.63;;
64716;SDS011;51146;50.274;19.000;2022-07-23T05:18:13;29.15;;;23.35;;
64716;SDS011;51146;50.274;19.000;2022-07-23T05:20:40;32.72;;;25.23;;
64716;SDS011;51146;50.274;19.000;2022-07-23T05:23:06;25.83;;;23.13;;
64716;SDS011;51146;50.274;19.000;2022-07-23T05:25:34;32.95;;;22.83;;
64716;SDS011;51146;50.274;19.000;2022-07-23T05:28:00;29.60;;;24.60;;
64716;SDS011;51146;50.274;19.000;2022-07-23T05:30:27;32.75;;;23.38;;
64716;SDS011;51146;50.274;19.000;2022-07-23T05:32:54;31.52;;;23.30;;
64716;SDS011;51146;50.274;19.000;2022-07-23T05:35:22;34.17;;;24.58;;
64716;SDS011;51146;50.274;19.000;2022-07-23T05:37:49;30.58;;;24.33;;
64716;SDS011;51146;50.274;19.000;2022-07-23T05:40:19;32.65;;;25.10;;
64716;SDS011;51146;50.274;19.000;2022-07-23T05:42:45;34.83;;;25.05;;
64716;SDS011;51146;50.274;19.000;2022-07-23T05:45:12;26.45;;;22.35;;
64716;SDS011;51146;50.274;19.000;2022-07-23T05:47:46;28.20;;;24.75;;
64716;SDS011;51146;50.274;19.000;2022-07-23T05:50:14;25.52;;;20.50;;
64716;SDS011;51146;50.274;19.000;2022-07-23T05:52:42;22.50;;;19.30;;
64716;SDS011;51146;50.274;19.000;2022-07-23T05:55:09;25.08;;;21.70;;
64716;SDS011;51146;50.274;19.000;2022-07-23T06:00:07;33.67;;;25.05;;
64716;SDS011;51146;50.274;19.000;2022-07-23T06:02:36;30.98;;;24.35;;
64716;SDS011;51146;50.274;19.000;2022-07-23T06:05:04;27.20;;;23.67;;
64716;SDS011;51146;50.274;19.000;2022-07-23T06:07:34;34.30;;;25.10;;
64716;SDS011;51146;50.274;19.000;2022-07-23T06:10:01;34.70;;;28.80;;
64716;SDS011;51146;50.274;19.000;2022-07-23T06:12:28;31.58;;;25.98;;
64716;SDS011;51146;50.274;19.000;2022-07-23T06:14:54;26.75;;;22.20;;
64716;SDS011;51146;50.274;19.000;2022-07-23T06:17:21;30.17;;;20.92;;
64716;SDS011;51146;50.274;19.000;2022-07-23T06:19:51;30.30;;;22.08;;
64716;SDS011;51146;50.274;19.000;2022-07-23T06:22:17;30.48;;;22.27;;
64716;SDS011;51146;50.274;19.000;2022-07-23T06:24:45;28.42;;;22.77;;
64716;SDS011;51146;50.274;19.000;2022-07-23T06:27:14;32.58;;;23.60;;
64716;SDS011;51146;50.274;19.000;2022-07-23T06:29:41;30.20;;;22.67;;
64716;SDS011;51146;50.274;19.000;2022-07-23T06:32:08;28.17;;;23.02;;
64716;SDS011;51146;50.274;19.000;2022-07-23T06:34:35;30.90;;;21.73;;
64716;SDS011;51146;50.274;19.000;2022-07-23T06:37:04;28.70;;;22.88;;
64716;SDS011;51146;50.274;19.000;2022-07-23T06:39:32;28.67;;;20.58;;
64716;SDS011;51146;50.274;19.000;2022-07-23T06:41:59;25.88;;;21.17;;
64716;SDS011;51146;50.274;19.000;2022-07-23T06:44:27;24.73;;;21.17;;
64716;SDS011;51146;50.274;19.000;2022-07-23T06:46:54;29.33;;;21.63;;
64716;SDS011;51146;50.274;19.000;2022-07-23T06:49:20;31.50;;;22.55;;
64716;SDS011;51146;50.274;19.000;2022-07-23T06:51:48;27.55;;;22.33;;
64716;SDS011;51146;50.274;19.000;2022-07-23T06:54:15;31.15;;;23.38;;
64716;SDS011;51146;50.274;19.000;2022-07-23T06:56:42;28.90;;;21.02;;
64716;SDS011;51146;50.274;19.000;2022-07-23T06:59:09;24.95;;;22.20;;
64716;SDS011;51146;50.274;19.000;2022-07-23T07:01:37;25.27;;;21.40;;
64716;SDS011;51146;50.274;19.000;2022-07-23T07:04:04;31.48;;;22.45;;
64716;SDS011;51146;50.274;19.000;2022-07-23T07:06:31;29.70;;;22.42;;
64716;SDS011;51146;50.274;19.000;2022-07-23T07:08:58;28.23;;;24.25;;
64716;SDS011;51146;50.274;19.000;2022-07-23T07:11:25;31.05;;;21.33;;
64716;SDS011;51146;50.274;19.000;2022-07-23T07:13:52;28.80;;;21.30;;
64716;SDS011;51146;50.274;19.000;2022-07-23T07:16:19;29.38;;;21.05;;
64716;SDS011;51146;50.274;19.000;2022-07-23T07:18:45;28.20;;;22.20;;
64716;SDS011;51146;50.274;19.000;2022-07-23T07:21:12;27.15;;;22.40;;
64716;SDS011;51146;50.274;19.000;2022-07-23T07:23:39;28.13;;;19.25;;
64716;SDS011;51146;50.274;19.000;2022-07-23T07:26:06;23.42;;;20.40;;
64716;SDS011;51146;50.274;19.000;2022-07-23T07:28:35;24.52;;;20.52;;
64716;SDS011;51146;50.274;19.000;2022-07-23T07:31:02;26.42;;;20.15;;
64716;SDS011;51146;50.274;19.000;2022-07-23T07:33:29;23.02;;;18.83;;
64716;SDS011;51146;50.274;19.000;2022-07-23T07:35:55;26.10;;;20.58;;
64716;SDS011;51146;50.274;19.000;2022-07-23T07:38:22;20.85;;;15.40;;
64716;SDS011;51146;50.274;19.000;2022-07-23T07:40:50;18.98;;;16.70;;
64716;SDS011;51146;50.274;19.000;2022-07-23T07:43:17;23.67;;;16.88;;
64716;SDS011;51146;50.274;19.000;2022-07-23T07:45:45;23.60;;;16.30;;
64716;SDS011;51146;50.274;19.000;2022-07-23T07:48:13;17.80;;;15.38;;
64716;SDS011;51146;50.274;19.000;2022-07-23T07:50:39;20.98;;;15.73;;
64716;SDS011;51146;50.274;19.000;2022-07-23T07:53:06;17.33;;;15.45;;
64716;SDS011;51146;50.274;19.000;2022-07-23T07:55:35;16.85;;;15.05;;
64716;SDS011;51146;50.274;19.000;2022-07-23T07:58:03;18.63;;;16.00;;
64716;SDS011;51146;50.274;19.000;2022-07-23T08:00:30;20.83;;;16.00;;
64716;SDS011;51146;50.274;19.000;2022-07-23T08:02:58;23.75;;;17.60;;
64716;SDS011;51146;50.274;19.000;2022-07-23T08:05:26;19.77;;;15.82;;
64716;SDS011;51146;50.274;19.000;2022-07-23T08:07:54;21.77;;;16.15;;
64716;SDS011;51146;50.274;19.000;2022-07-23T08:10:23;20.67;;;17.07;;
64716;SDS011;51146;50.274;19.000;2022-07-23T08:12:51;17.50;;;15.73;;
64716;SDS011;51146;50.274;19.000;2022-07-23T08:15:23;19.42;;;16.23;;
64716;SDS011;51146;50.274;19.000;2022-07-23T08:17:51;53.70;;;19.60;;
64716;SDS011;51146;50.274;19.000;2022-07-23T08:20:19;17.08;;;13.93;;
64716;SDS011;51146;50.274;19.000;2022-07-23T08:22:49;18.02;;;13.80;;
64716;SDS011;51146;50.274;19.000;2022-07-23T08:25:30;16.08;;;12.50;;
64716;SDS011;51146;50.274;19.000;2022-07-23T08:28:02;15.85;;;12.88;;
64716;SDS011;51146;50.274;19.000;2022-07-23T08:30:31;16.17;;;14.25;;
64716;SDS011;51146;50.274;19.000;2022-07-23T08:35:32;13.32;;;10.07;;
64716;SDS011;51146;50.274;19.000;2022-07-23T08:38:01;12.85;;;11.13;;
64716;SDS011;51146;50.274;19.000;2022-07-23T08:40:30;12.80;;;11.48;;
64716;SDS011;51146;50.274;19.000;2022-07-23T08:43:06;16.00;;;11.90;;
64716;SDS011;51146;50.274;19.000;2022-07-23T08:45:39;15.00;;;12.05;;
64716;SDS011;51146;50.274;19.000;2022-07-23T08:50:37;15.05;;;11.48;;
64716;SDS011;51146;50.274;19.000;2022-07-23T08:55:33;12.70;;;9.77;;
64716;SDS011;51146;50.274;19.000;2022-07-23T08:58:00;11.73;;;9.90;;
64716;SDS011;51146;50.274;19.000;2022-07-23T09:00:27;12.48;;;9.93;;
64716;SDS011;51146;50.274;19.000;2022-07-23T09:02:54;12.00;;;9.20;;
64716;SDS011;51146;50.274;19.000;2022-07-23T09:05:21;10.60;;;9.38;;
64716;SDS011;51146;50.274;19.000;2022-07-23T09:10:43;14.57;;;9.83;;
64716;SDS011;51146;50.274;19.000;2022-07-23T09:13:26;14.10;;;9.27;;
64716;SDS011;51146;50.274;19.000;2022-07-23T09:15:57;10.25;;;9.27;;
64716;SDS011;51146;50.274;19.000;2022-07-23T09:18:36;14.48;;;9.95;;
64716;SDS011;51146;50.274;19.000;2022-07-23T09:21:09;10.80;;;9.43;;
64716;SDS011;51146;50.274;19.000;2022-07-23T09:23:40;11.30;;;10.10;;
64716;SDS011;51146;50.274;19.000;2022-07-23T09:29:11;13.20;;;9.75;;
64716;SDS011;51146;50.274;19.000;2022-07-23T09:31:55;9.48;;;8.57;;
64716;SDS011;51146;50.274;19.000;2022-07-23T09:34:31;8.35;;;7.55;;
64716;SDS011;51146;50.274;19.000;2022-07-23T09:37:10;13.55;;;9.68;;
64716;SDS011;51146;50.274;19.000;2022-07-23T09:39:43;9.65;;;8.75;;
64716;SDS011;51146;50.274;19.000;2022-07-23T09:42:22;8.95;;;8.07;;
64716;SDS011;51146;50.274;19.000;2022-07-23T09:44:52;10.43;;;8.35;;
64716;SDS011;51146;50.274;19.000;2022-07-23T09:47:21;8.63;;;7.80;;
64716;SDS011;51146;50.274;19.000;2022-07-23T09:52:36;9.18;;;8.20;;
64716;SDS011;51146;50.274;19.000;2022-07-23T09:55:10;8.10;;;7.38;;
64716;SDS011;51146;50.274;19.000;2022-07-23T09:57:37;8.70;;;7.85;;
64716;SDS011;51146;50.274;19.000;2022-07-23T10:00:06;10.00;;;9.00;;
64716;SDS011;51146;50.274;19.000;2022-07-23T10:02:37;12.38;;;9.10;;
64716;SDS011;51146;50.274;19.000;2022-07-23T10:05:05;9.55;;;8.73;;
64716;SDS011;51146;50.274;19.000;2022-07-23T10:07:39;11.13;;;9.00;;
64716;SDS011;51146;50.274;19.000;2022-07-23T10:10:06;8.45;;;7.78;;
64716;SDS011;51146;50.274;19.000;2022-07-23T10:12:34;9.27;;;8.13;;
64716;SDS011;51146;50.274;19.000;2022-07-23T10:15:24;10.20;;;9.00;;
64716;SDS011;51146;50.274;19.000;2022-07-23T10:17:52;8.63;;;7.78;;
64716;SDS011;51146;50.274;19.000;2022-07-23T10:20:19;8.18;;;6.97;;
64716;SDS011;51146;50.274;19.000;2022-07-23T10:22:53;9.82;;;8.20;;
64716;SDS011;51146;50.274;19.000;2022-07-23T10:25:40;9.23;;;8.18;;
64716;SDS011;51146;50.274;19.000;2022-07-23T10:28:53;9.30;;;8.27;;
64716;SDS011;51146;50.274;19.000;2022-07-23T10:34:18;10.63;;;8.85;;
64716;SDS011;51146;50.274;19.000;2022-07-23T10:36:58;10.48;;;8.38;;
64716;SDS011;51146;50.274;19.000;2022-07-23T10:39:32;10.30;;;8.30;;
64716;SDS011;51146;50.274;19.000;2022-07-23T10:44:48;9.65;;;8.68;;
64716;SDS011;51146;50.274;19.000;2022-07-23T10:47:25;8.95;;;8.05;;
64716;SDS011;51146;50.274;19.000;2022-07-23T10:55:40;8.70;;;7.85;;
64716;SDS011;51146;50.274;19.000;2022-07-23T10:58:10;8.52;;;7.72;;
64716;SDS011;51146;50.274;19.000;2022-07-23T11:00:37;9.93;;;7.70;;
64716;SDS011;51146;50.274;19.000;2022-07-23T11:03:27;12.55;;;8.50;;
64716;SDS011;51146;50.274;19.000;2022-07-23T11:05:58;10.02;;;9.02;;
64716;SDS011;51146;50.274;19.000;2022-07-23T11:08:25;16.48;;;8.80;;
64716;SDS011;51146;50.274;19.000;2022-07-23T11:10:53;9.77;;;7.93;;
64716;SDS011;51146;50.274;19.000;2022-07-23T11:24:03;9.10;;;7.78;;
64716;SDS011;51146;50.274;19.000;2022-07-23T11:34:39;15.00;;;13.55;;
64716;SDS011;51146;50.274;19.000;2022-07-23T11:37:09;11.27;;;8.73;;
64716;SDS011;51146;50.274;19.000;2022-07-23T11:39:37;11.88;;;8.98;;
64716;SDS011;51146;50.274;19.000;2022-07-23T11:42:07;8.55;;;7.80;;
64716;SDS011;51146;50.274;19.000;2022-07-23T11:44:35;8.57;;;7.88;;
64716;SDS011;51146;50.274;19.000;2022-07-23T11:47:05;8.05;;;7.45;;
64716;SDS011;51146;50.274;19.000;2022-07-23T11:49:36;10.25;;;9.13;;
64716;SDS011;51146;50.274;19.000;2022-07-23T11:52:04;13.23;;;8.50;;
64716;SDS011;51146;50.274;19.000;2022-07-23T11:57:36;9.15;;;8.35;;
64716;SDS011;51146;50.274;19.000;2022-07-23T12:00:08;9.93;;;8.30;;
64716;SDS011;51146;50.274;19.000;2022-07-23T12:02:41;8.95;;;7.03;;
64716;SDS011;51146;50.274;19.000;2022-07-23T12:05:20;9.40;;;8.48;;
64716;SDS011;51146;50.274;19.000;2022-07-23T12:07:52;9.18;;;8.07;;
64716;SDS011;51146;50.274;19.000;2022-07-23T12:12:57;8.15;;;7.40;;
64716;SDS011;51146;50.274;19.000;2022-07-23T12:15:30;8.02;;;7.25;;
64716;SDS011;51146;50.274;19.000;2022-07-23T12:18:00;8.10;;;7.40;;
64716;SDS011;51146;50.274;19.000;2022-07-23T12:20:28;7.65;;;6.95;;
64716;SDS011;51146;50.274;19.000;2022-07-23T12:23:01;41.03;;;8.48;;
64716;SDS011;51146;50.274;19.000;2022-07-23T12:25:31;8.05;;;7.25;;
64716;SDS011;51146;50.274;19.000;2022-07-23T12:28:17;9.65;;;7.75;;
64716;SDS011;51146;50.274;19.000;2022-07-23T12:30:46;8.25;;;7.07;;
64716;SDS011;51146;50.274;19.000;2022-07-23T12:33:15;7.85;;;7.25;;
64716;SDS011;51146;50.274;19.000;2022-07-23T12:35:48;8.30;;;7.50;;
64716;SDS011;51146;50.274;19.000;2022-07-23T12:38:17;14.20;;;11.40;;
64716;SDS011;51146;50.274;19.000;2022-07-23T12:43:21;10.25;;;9.18;;
64716;SDS011;51146;50.274;19.000;2022-07-23T12:45:51;9.50;;;8.52;;
64716;SDS011;51146;50.274;19.000;2022-07-23T12:53:21;8.32;;;7.63;;
64716;SDS011;51146;50.274;19.000;2022-07-23T12:55:50;9.20;;;8.30;;
64716;SDS011;51146;50.274;19.000;2022-07-23T12:58:51;10.38;;;8.23;;
64716;SDS011;51146;50.274;19.000;2022-07-23T13:01:22;13.93;;;8.93;;
64716;SDS011;51146;50.274;19.000;2022-07-23T13:06:22;9.75;;;8.82;;
64716;SDS011;51146;50.274;19.000;2022-07-23T13:08:50;10.33;;;8.80;;
64716;SDS011;51146;50.274;19.000;2022-07-23T13:11:17;9.45;;;8.50;;
64716;SDS011;51146;50.274;19.000;2022-07-23T13:13:45;12.70;;;8.48;;
64716;SDS011;51146;50.274;19.000;2022-07-23T13:16:11;9.30;;;8.43;;
64716;SDS011;51146;50.274;19.000;2022-07-23T13:18:38;9.88;;;8.57;;
64716;SDS011;51146;50.274;19.000;2022-07-23T13:21:05;9.77;;;8.10;;
64716;SDS011;51146;50.274;19.000;2022-07-23T13:23:32;9.00;;;8.20;;
64716;SDS011;51146;50.274;19.000;2022-07-23T13:25:59;11.98;;;9.20;;
64716;SDS011;51146;50.274;19.000;2022-07-23T13:28:26;9.57;;;8.57;;
64716;SDS011;51146;50.274;19.000;2022-07-23T13:30:52;10.15;;;9.25;;
64716;SDS011;51146;50.274;19.000;2022-07-23T13:33:22;10.52;;;8.90;;
64716;SDS011;51146;50.274;19.000;2022-07-23T13:35:52;10.40;;;9.40;;
64716;SDS011;51146;50.274;19.000;2022-07-23T13:38:21;13.70;;;8.60;;
64716;SDS011;51146;50.274;19.000;2022-07-23T13:40:50;14.15;;;9.65;;
64716;SDS011;51146;50.274;19.000;2022-07-23T13:43:18;14.73;;;10.77;;
64716;SDS011;51146;50.274;19.000;2022-07-23T13:45:48;10.32;;;9.32;;
64716;SDS011;51146;50.274;19.000;2022-07-23T13:48:16;11.85;;;9.75;;
64716;SDS011;51146;50.274;19.000;2022-07-23T13:50:44;13.00;;;10.33;;
64716;SDS011;51146;50.274;19.000;2022-07-23T13:53:20;20.70;;;11.27;;
64716;SDS011;51146;50.274;19.000;2022-07-23T13:55:50;16.80;;;10.27;;
64716;SDS011;51146;50.274;19.000;2022-07-23T13:58:19;16.30;;;11.20;;
64716;SDS011;51146;50.274;19.000;2022-07-23T14:00:50;17.75;;;12.45;;
64716;SDS011;51146;50.274;19.000;2022-07-23T14:03:20;19.42;;;12.38;;
64716;SDS011;51146;50.274;19.000;2022-07-23T14:05:53;18.27;;;12.95;;
64716;SDS011;51146;50.274;19.000;2022-07-23T14:08:22;17.80;;;12.60;;
64716;SDS011;51146;50.274;19.000;2022-07-23T14:10:52;16.08;;;11.00;;
64716;SDS011;51146;50.274;19.000;2022-07-23T14:13:19;21.27;;;11.57;;
64716;SDS011;51146;50.274;19.000;2022-07-23T14:15:48;25.17;;;11.02;;
64716;SDS011;51146;50.274;19.000;2022-07-23T14:18:17;21.80;;;11.63;;
64716;SDS011;51146;50.274;19.000;2022-07-23T14:20:44;20.37;;;10.33;;
64716;SDS011;51146;50.274;19.000;2022-07-23T14:23:12;16.90;;;9.60;;
64716;SDS011;51146;50.274;19.000;2022-07-23T14:25:39;22.13;;;9.73;;
64716;SDS011;51146;50.274;19.000;2022-07-23T14:28:06;13.98;;;9.57;;
64716;SDS011;51146;50.274;19.000;2022-07-23T14:30:34;15.00;;;10.27;;
64716;SDS011;51146;50.274;19.000;2022-07-23T14:33:01;13.25;;;8.95;;
64716;SDS011;51146;50.274;19.000;2022-07-23T14:35:28;20.23;;;9.35;;
64716;SDS011;51146;50.274;19.000;2022-07-23T14:37:56;15.43;;;9.60;;
64716;SDS011;51146;50.274;19.000;2022-07-23T14:40:23;16.75;;;9.05;;
64716;SDS011;51146;50.274;19.000;2022-07-23T14:42:54;11.57;;;9.90;;
64716;SDS011;51146;50.274;19.000;2022-07-23T14:45:21;22.52;;;10.52;;
64716;SDS011;51146;50.274;19.000;2022-07-23T14:47:48;11.32;;;9.70;;
64716;SDS011;51146;50.274;19.000;2022-07-23T14:50:15;13.57;;;9.90;;
64716;SDS011;51146;50.274;19.000;2022-07-23T14:52:42;11.98;;;9.90;;
64716;SDS011;51146;50.274;19.000;2022-07-23T14:55:09;16.35;;;9.85;;
64716;SDS011;51146;50.274;19.000;2022-07-23T14:57:36;12.98;;;11.00;;
64716;SDS011;51146;50.274;19.000;2022-07-23T15:00:06;13.85;;;9.93;;
64716;SDS011;51146;50.274;19.000;2022-07-23T15:02:34;13.95;;;10.05;;
64716;SDS011;51146;50.274;19.000;2022-07-23T15:05:01;15.48;;;9.93;;
64716;SDS011;51146;50.274;19.000;2022-07-23T15:07:32;12.00;;;10.00;;
64716;SDS011;51146;50.274;19.000;2022-07-23T15:09:59;13.77;;;10.43;;
64716;SDS011;51146;50.274;19.000;2022-07-23T15:14:56;11.60;;;9.60;;
64716;SDS011;51146;50.274;19.000;2022-07-23T15:17:22;11.65;;;10.02;;
64716;SDS011;51146;50.274;19.000;2022-07-23T15:19:52;18.48;;;9.90;;
64716;SDS011;51146;50.274;19.000;2022-07-23T15:22:22;11.10;;;10.05;;
64716;SDS011;51146;50.274;19.000;2022-07-23T15:24:50;14.80;;;10.82;;
64716;SDS011;51146;50.274;19.000;2022-07-23T15:27:18;15.75;;;10.85;;
64716;SDS011;51146;50.274;19.000;2022-07-23T15:29:46;12.45;;;11.00;;
64716;SDS011;51146;50.274;19.000;2022-07-23T15:32:13;13.50;;;11.33;;